sensor_id;sensor_type;location;lat;lon;timestamp;P1;durP1;ratioP1;P2;durP2;ratioP2
12892;SDS011;6514;48.606;9.222;2023-12-07T00:00:46;11.50;;;8.03;;
12892;SDS011;6514;48.606;9.222;2023-12-07T00:03:13;11.13;;;8.33;;
12892;SDS011;6514;48.606;9.222;2023-12-07T00:05:40;10.30;;;7.30;;
12892;SDS011;6514;48.606;9.222;2023-12-07T00:08:08;11.43;;;8.00;;
12892;SDS011;6514;48.606;9.222;2023-12-07T00:10:35;9.37;;;7.03;;
12892;SDS011;6514;48.606;9.222;2023-12-07T00:13:02;10.67;;;7.63;;
12892;SDS011;6514;48.606;9.222;2023-12-07T00:15:30;10.87;;;7.63;;
12892;SDS011;6514;48.606;9.222;2023-12-07T00:17:57;9.23;;;7.10;;
12892;SDS011;6514;48.606;9.222;2023-12-07T00:20:25;13.07;;;8.30;;
12892;SDS011;6514;48.606;9.222;2023-12-07T00:22:52;11.37;;;8.70;;
12892;SDS011;6514;48.606;9.222;2023-12-07T00:25:18;10.33;;;7.90;;
12892;SDS011;6514;48.606;9.222;2023-12-07T00:27:45;12.33;;;7.67;;
12892;SDS011;6514;48.606;9.222;2023-12-07T00:30:12;11.77;;;8.57;;
12892;SDS011;6514;48.606;9.222;2023-12-07T00:32:41;13.10;;;9.03;;
12892;SDS011;6514;48.606;9.222;2023-12-07T00:35:08;12.30;;;8.30;;
12892;SDS011;6514;48.606;9.222;2023-12-07T00:37:35;11.53;;;8.93;;
12892;SDS011;6514;48.606;9.222;2023-12-07T00:40:02;13.03;;;9.47;;
12892;SDS011;6514;48.606;9.222;2023-12-07T00:42:29;12.33;;;9.33;;
12892;SDS011;6514;48.606;9.222;2023-12-07T00:44:56;11.63;;;8.50;;
12892;SDS011;6514;48.606;9.222;2023-12-07T00:47:23;14.87;;;8.53;;
12892;SDS011;6514;48.606;9.222;2023-12-07T00:49:51;10.67;;;8.10;;
12892;SDS011;6514;48.606;9.222;2023-12-07T00:52:18;11.67;;;8.20;;
12892;SDS011;6514;48.606;9.222;2023-12-07T00:54:45;11.70;;;8.60;;
12892;SDS011;6514;48.606;9.222;2023-12-07T00:57:12;12.37;;;9.17;;
12892;SDS011;6514;48.606;9.222;2023-12-07T00:59:39;11.73;;;8.30;;
12892;SDS011;6514;48.606;9.222;2023-12-07T01:02:06;13.73;;;9.23;;
12892;SDS011;6514;48.606;9.222;2023-12-07T01:04:33;10.87;;;8.70;;
12892;SDS011;6514;48.606;9.222;2023-12-07T01:07:01;10.70;;;8.30;;
12892;SDS011;6514;48.606;9.222;2023-12-07T01:09:28;11.47;;;8.93;;
12892;SDS011;6514;48.606;9.222;2023-12-07T01:11:55;11.03;;;8.00;;
12892;SDS011;6514;48.606;9.222;2023-12-07T01:14:23;13.03;;;8.97;;
12892;SDS011;6514;48.606;9.222;2023-12-07T01:16:50;11.63;;;8.90;;
12892;SDS011;6514;48.606;9.222;2023-12-07T01:19:17;13.13;;;8.53;;
12892;SDS011;6514;48.606;9.222;2023-12-07T01:21:43;10.73;;;7.90;;
12892;SDS011;6514;48.606;9.222;2023-12-07T01:24:13;13.70;;;8.00;;
12892;SDS011;6514;48.606;9.222;2023-12-07T01:26:40;11.50;;;7.87;;
12892;SDS011;6514;48.606;9.222;2023-12-07T01:29:07;12.23;;;8.57;;
12892;SDS011;6514;48.606;9.222;2023-12-07T01:31:33;13.10;;;9.17;;
12892;SDS011;6514;48.606;9.222;2023-12-07T01:34:00;9.53;;;7.10;;
12892;SDS011;6514;48.606;9.222;2023-12-07T01:36:27;9.43;;;6.50;;
12892;SDS011;6514;48.606;9.222;2023-12-07T01:38:54;10.30;;;6.93;;
12892;SDS011;6514;48.606;9.222;2023-12-07T01:41:22;7.80;;;6.47;;
12892;SDS011;6514;48.606;9.222;2023-12-07T01:43:49;10.47;;;7.00;;
12892;SDS011;6514;48.606;9.222;2023-12-07T01:46:16;9.60;;;6.77;;
12892;SDS011;6514;48.606;9.222;2023-12-07T01:48:43;8.03;;;6.33;;
12892;SDS011;6514;48.606;9.222;2023-12-07T01:51:13;9.63;;;6.90;;
12892;SDS011;6514;48.606;9.222;2023-12-07T01:53:41;9.10;;;6.60;;
12892;SDS011;6514;48.606;9.222;2023-12-07T01:56:08;8.70;;;6.83;;
12892;SDS011;6514;48.606;9.222;2023-12-07T01:58:38;9.37;;;6.47;;
12892;SDS011;6514;48.606;9.222;2023-12-07T02:01:05;9.67;;;6.40;;
12892;SDS011;6514;48.606;9.222;2023-12-07T02:03:32;8.70;;;6.67;;
12892;SDS011;6514;48.606;9.222;2023-12-07T02:05:59;8.50;;;6.30;;
12892;SDS011;6514;48.606;9.222;2023-12-07T02:08:27;10.03;;;6.17;;
12892;SDS011;6514;48.606;9.222;2023-12-07T02:10:54;9.73;;;6.57;;
12892;SDS011;6514;48.606;9.222;2023-12-07T02:13:21;12.40;;;7.60;;
12892;SDS011;6514;48.606;9.222;2023-12-07T02:15:49;10.67;;;7.37;;
12892;SDS011;6514;48.606;9.222;2023-12-07T02:18:19;10.43;;;7.50;;
12892;SDS011;6514;48.606;9.222;2023-12-07T02:20:53;11.17;;;7.60;;
12892;SDS011;6514;48.606;9.222;2023-12-07T02:23:26;12.10;;;7.10;;
12892;SDS011;6514;48.606;9.222;2023-12-07T02:25:54;11.23;;;7.60;;
12892;SDS011;6514;48.606;9.222;2023-12-07T02:28:30;10.97;;;7.13;;
12892;SDS011;6514;48.606;9.222;2023-12-07T02:30:57;9.17;;;6.77;;
12892;SDS011;6514;48.606;9.222;2023-12-07T02:33:23;11.80;;;7.53;;
12892;SDS011;6514;48.606;9.222;2023-12-07T02:35:50;14.03;;;8.10;;
12892;SDS011;6514;48.606;9.222;2023-12-07T02:38:17;9.80;;;7.40;;
12892;SDS011;6514;48.606;9.222;2023-12-07T02:40:46;10.87;;;7.53;;
12892;SDS011;6514;48.606;9.222;2023-12-07T02:43:14;10.40;;;7.43;;
12892;SDS011;6514;48.606;9.222;2023-12-07T02:45:42;10.17;;;7.17;;
12892;SDS011;6514;48.606;9.222;2023-12-07T02:48:09;10.43;;;7.13;;
12892;SDS011;6514;48.606;9.222;2023-12-07T02:50:36;11.17;;;7.47;;
12892;SDS011;6514;48.606;9.222;2023-12-07T02:53:03;10.97;;;7.43;;
12892;SDS011;6514;48.606;9.222;2023-12-07T02:55:30;10.73;;;7.07;;
12892;SDS011;6514;48.606;9.222;2023-12-07T02:57:56;10.53;;;6.73;;
12892;SDS011;6514;48.606;9.222;2023-12-07T03:00:23;10.13;;;7.60;;
12892;SDS011;6514;48.606;9.222;2023-12-07T03:02:52;10.37;;;7.53;;
12892;SDS011;6514;48.606;9.222;2023-12-07T03:05:19;10.00;;;7.17;;
12892;SDS011;6514;48.606;9.222;2023-12-07T03:07:48;10.50;;;6.80;;
12892;SDS011;6514;48.606;9.222;2023-12-07T03:10:15;12.47;;;7.47;;
12892;SDS011;6514;48.606;9.222;2023-12-07T03:12:41;12.03;;;7.77;;
12892;SDS011;6514;48.606;9.222;2023-12-07T03:15:08;13.00;;;8.63;;
12892;SDS011;6514;48.606;9.222;2023-12-07T03:17:35;10.63;;;7.23;;
12892;SDS011;6514;48.606;9.222;2023-12-07T03:20:04;10.87;;;7.20;;
12892;SDS011;6514;48.606;9.222;2023-12-07T03:22:33;12.03;;;7.73;;
12892;SDS011;6514;48.606;9.222;2023-12-07T03:24:59;13.57;;;8.23;;
12892;SDS011;6514;48.606;9.222;2023-12-07T03:27:26;12.30;;;7.73;;
12892;SDS011;6514;48.606;9.222;2023-12-07T03:29:54;11.23;;;7.77;;
12892;SDS011;6514;48.606;9.222;2023-12-07T03:32:20;12.97;;;8.27;;
12892;SDS011;6514;48.606;9.222;2023-12-07T03:34:47;10.33;;;7.47;;
12892;SDS011;6514;48.606;9.222;2023-12-07T03:37:15;11.60;;;8.00;;
12892;SDS011;6514;48.606;9.222;2023-12-07T03:39:42;11.13;;;7.97;;
12892;SDS011;6514;48.606;9.222;2023-12-07T03:42:09;13.40;;;8.37;;
12892;SDS011;6514;48.606;9.222;2023-12-07T03:44:36;12.23;;;7.70;;
12892;SDS011;6514;48.606;9.222;2023-12-07T03:47:03;13.67;;;7.97;;
12892;SDS011;6514;48.606;9.222;2023-12-07T03:49:31;13.73;;;8.40;;
12892;SDS011;6514;48.606;9.222;2023-12-07T03:51:58;12.83;;;8.47;;
12892;SDS011;6514;48.606;9.222;2023-12-07T03:54:26;13.50;;;8.30;;
12892;SDS011;6514;48.606;9.222;2023-12-07T03:56:53;11.93;;;8.80;;
12892;SDS011;6514;48.606;9.222;2023-12-07T03:59:20;11.83;;;7.87;;
12892;SDS011;6514;48.606;9.222;2023-12-07T04:01:46;13.60;;;7.90;;
12892;SDS011;6514;48.606;9.222;2023-12-07T04:04:13;18.93;;;12.13;;
12892;SDS011;6514;48.606;9.222;2023-12-07T04:06:40;18.57;;;12.70;;
12892;SDS011;6514;48.606;9.222;2023-12-07T04:09:07;19.20;;;12.20;;
12892;SDS011;6514;48.606;9.222;2023-12-07T04:11:35;20.90;;;12.77;;
12892;SDS011;6514;48.606;9.222;2023-12-07T04:14:02;16.57;;;11.70;;
12892;SDS011;6514;48.606;9.222;2023-12-07T04:16:29;16.90;;;12.00;;
12892;SDS011;6514;48.606;9.222;2023-12-07T04:18:56;20.63;;;13.07;;
12892;SDS011;6514;48.606;9.222;2023-12-07T04:21:23;18.30;;;11.80;;
12892;SDS011;6514;48.606;9.222;2023-12-07T04:23:50;23.50;;;16.07;;
12892;SDS011;6514;48.606;9.222;2023-12-07T04:26:16;20.70;;;14.30;;
12892;SDS011;6514;48.606;9.222;2023-12-07T04:28:44;19.83;;;13.30;;
12892;SDS011;6514;48.606;9.222;2023-12-07T04:31:11;17.97;;;12.87;;
12892;SDS011;6514;48.606;9.222;2023-12-07T04:33:38;16.03;;;10.60;;
12892;SDS011;6514;48.606;9.222;2023-12-07T04:36:05;17.73;;;11.13;;
12892;SDS011;6514;48.606;9.222;2023-12-07T04:38:33;16.10;;;11.27;;
12892;SDS011;6514;48.606;9.222;2023-12-07T04:40:59;16.13;;;10.70;;
12892;SDS011;6514;48.606;9.222;2023-12-07T04:43:26;16.10;;;10.13;;
12892;SDS011;6514;48.606;9.222;2023-12-07T04:45:54;13.63;;;9.83;;
12892;SDS011;6514;48.606;9.222;2023-12-07T04:48:21;15.17;;;9.47;;
12892;SDS011;6514;48.606;9.222;2023-12-07T04:50:48;15.70;;;10.17;;
12892;SDS011;6514;48.606;9.222;2023-12-07T04:53:15;15.43;;;9.47;;
12892;SDS011;6514;48.606;9.222;2023-12-07T04:55:41;15.63;;;10.10;;
12892;SDS011;6514;48.606;9.222;2023-12-07T04:58:12;17.37;;;10.87;;
12892;SDS011;6514;48.606;9.222;2023-12-07T05:00:38;17.27;;;10.23;;
12892;SDS011;6514;48.606;9.222;2023-12-07T05:03:07;15.63;;;9.80;;
12892;SDS011;6514;48.606;9.222;2023-12-07T05:05:34;14.23;;;9.30;;
12892;SDS011;6514;48.606;9.222;2023-12-07T05:08:01;14.27;;;9.53;;
12892;SDS011;6514;48.606;9.222;2023-12-07T05:10:28;15.43;;;9.73;;
12892;SDS011;6514;48.606;9.222;2023-12-07T05:12:55;16.73;;;10.10;;
12892;SDS011;6514;48.606;9.222;2023-12-07T05:15:22;17.10;;;10.30;;
12892;SDS011;6514;48.606;9.222;2023-12-07T05:17:49;14.97;;;10.03;;
12892;SDS011;6514;48.606;9.222;2023-12-07T05:20:17;16.27;;;10.27;;
12892;SDS011;6514;48.606;9.222;2023-12-07T05:22:47;16.10;;;9.47;;
12892;SDS011;6514;48.606;9.222;2023-12-07T05:25:14;13.23;;;9.10;;
12892;SDS011;6514;48.606;9.222;2023-12-07T05:27:41;15.20;;;10.23;;
12892;SDS011;6514;48.606;9.222;2023-12-07T05:30:08;14.80;;;9.37;;
12892;SDS011;6514;48.606;9.222;2023-12-07T05:32:36;13.30;;;9.40;;
12892;SDS011;6514;48.606;9.222;2023-12-07T05:35:03;14.33;;;8.53;;
12892;SDS011;6514;48.606;9.222;2023-12-07T05:37:32;14.43;;;8.97;;
12892;SDS011;6514;48.606;9.222;2023-12-07T05:39:59;13.83;;;9.53;;
12892;SDS011;6514;48.606;9.222;2023-12-07T05:42:26;11.60;;;8.67;;
12892;SDS011;6514;48.606;9.222;2023-12-07T05:44:52;14.33;;;9.40;;
12892;SDS011;6514;48.606;9.222;2023-12-07T05:47:20;12.43;;;8.30;;
12892;SDS011;6514;48.606;9.222;2023-12-07T05:49:48;13.37;;;8.97;;
12892;SDS011;6514;48.606;9.222;2023-12-07T05:52:15;14.80;;;9.10;;
12892;SDS011;6514;48.606;9.222;2023-12-07T05:54:43;13.07;;;8.97;;
12892;SDS011;6514;48.606;9.222;2023-12-07T05:57:12;13.90;;;9.40;;
12892;SDS011;6514;48.606;9.222;2023-12-07T05:59:39;12.63;;;8.57;;
12892;SDS011;6514;48.606;9.222;2023-12-07T06:02:06;16.23;;;9.10;;
12892;SDS011;6514;48.606;9.222;2023-12-07T06:04:33;14.37;;;9.23;;
12892;SDS011;6514;48.606;9.222;2023-12-07T06:07:00;12.10;;;8.57;;
12892;SDS011;6514;48.606;9.222;2023-12-07T06:09:30;16.30;;;9.53;;
12892;SDS011;6514;48.606;9.222;2023-12-07T06:11:59;15.67;;;11.03;;
12892;SDS011;6514;48.606;9.222;2023-12-07T06:14:26;13.53;;;9.17;;
12892;SDS011;6514;48.606;9.222;2023-12-07T06:16:52;15.90;;;10.20;;
12892;SDS011;6514;48.606;9.222;2023-12-07T06:19:20;15.57;;;9.80;;
12892;SDS011;6514;48.606;9.222;2023-12-07T06:21:47;16.57;;;9.33;;
12892;SDS011;6514;48.606;9.222;2023-12-07T06:24:14;14.20;;;9.73;;
12892;SDS011;6514;48.606;9.222;2023-12-07T06:26:40;14.17;;;9.13;;
12892;SDS011;6514;48.606;9.222;2023-12-07T06:29:08;16.23;;;10.53;;
12892;SDS011;6514;48.606;9.222;2023-12-07T06:31:35;17.77;;;10.23;;
12892;SDS011;6514;48.606;9.222;2023-12-07T06:34:02;16.27;;;9.87;;
12892;SDS011;6514;48.606;9.222;2023-12-07T06:36:29;15.30;;;9.40;;
12892;SDS011;6514;48.606;9.222;2023-12-07T06:38:56;17.27;;;9.50;;
12892;SDS011;6514;48.606;9.222;2023-12-07T06:41:23;14.97;;;9.63;;
12892;SDS011;6514;48.606;9.222;2023-12-07T06:43:49;13.83;;;9.23;;
12892;SDS011;6514;48.606;9.222;2023-12-07T06:46:18;17.53;;;12.40;;
12892;SDS011;6514;48.606;9.222;2023-12-07T06:48:45;19.30;;;12.17;;
12892;SDS011;6514;48.606;9.222;2023-12-07T06:51:12;16.47;;;10.53;;
12892;SDS011;6514;48.606;9.222;2023-12-07T06:53:39;16.47;;;11.03;;
12892;SDS011;6514;48.606;9.222;2023-12-07T06:56:06;17.60;;;10.37;;
12892;SDS011;6514;48.606;9.222;2023-12-07T06:58:34;17.23;;;10.83;;
12892;SDS011;6514;48.606;9.222;2023-12-07T07:01:01;17.87;;;9.60;;
12892;SDS011;6514;48.606;9.222;2023-12-07T07:03:29;16.63;;;9.87;;
12892;SDS011;6514;48.606;9.222;2023-12-07T07:05:56;16.00;;;10.50;;
12892;SDS011;6514;48.606;9.222;2023-12-07T07:08:24;17.37;;;10.60;;
12892;SDS011;6514;48.606;9.222;2023-12-07T07:10:51;18.30;;;11.37;;
12892;SDS011;6514;48.606;9.222;2023-12-07T07:13:17;16.43;;;11.10;;
12892;SDS011;6514;48.606;9.222;2023-12-07T07:15:45;17.17;;;10.93;;
12892;SDS011;6514;48.606;9.222;2023-12-07T07:18:12;18.17;;;11.50;;
12892;SDS011;6514;48.606;9.222;2023-12-07T07:20:41;15.47;;;10.07;;
12892;SDS011;6514;48.606;9.222;2023-12-07T07:23:08;18.67;;;11.67;;
12892;SDS011;6514;48.606;9.222;2023-12-07T07:25:35;19.03;;;11.00;;
12892;SDS011;6514;48.606;9.222;2023-12-07T07:28:03;15.50;;;9.90;;
12892;SDS011;6514;48.606;9.222;2023-12-07T07:30:31;15.57;;;9.80;;
12892;SDS011;6514;48.606;9.222;2023-12-07T07:32:57;15.30;;;9.57;;
12892;SDS011;6514;48.606;9.222;2023-12-07T07:35:24;17.47;;;10.37;;
12892;SDS011;6514;48.606;9.222;2023-12-07T07:37:53;25.40;;;14.77;;
12892;SDS011;6514;48.606;9.222;2023-12-07T07:40:20;30.93;;;16.57;;
12892;SDS011;6514;48.606;9.222;2023-12-07T07:42:47;29.23;;;19.03;;
12892;SDS011;6514;48.606;9.222;2023-12-07T07:45:17;21.43;;;13.77;;
12892;SDS011;6514;48.606;9.222;2023-12-07T07:47:44;17.17;;;11.33;;
12892;SDS011;6514;48.606;9.222;2023-12-07T07:50:11;17.23;;;11.03;;
12892;SDS011;6514;48.606;9.222;2023-12-07T07:52:37;15.63;;;9.97;;
12892;SDS011;6514;48.606;9.222;2023-12-07T07:55:07;16.50;;;10.13;;
12892;SDS011;6514;48.606;9.222;2023-12-07T07:57:34;16.10;;;11.03;;
12892;SDS011;6514;48.606;9.222;2023-12-07T08:00:01;15.70;;;10.57;;
12892;SDS011;6514;48.606;9.222;2023-12-07T08:02:29;15.23;;;10.67;;
12892;SDS011;6514;48.606;9.222;2023-12-07T08:04:56;17.87;;;10.87;;
12892;SDS011;6514;48.606;9.222;2023-12-07T08:07:23;16.80;;;10.83;;
12892;SDS011;6514;48.606;9.222;2023-12-07T08:09:50;21.13;;;12.90;;
12892;SDS011;6514;48.606;9.222;2023-12-07T08:12:18;16.57;;;11.23;;
12892;SDS011;6514;48.606;9.222;2023-12-07T08:14:47;16.40;;;11.23;;
12892;SDS011;6514;48.606;9.222;2023-12-07T08:17:14;17.67;;;11.67;;
12892;SDS011;6514;48.606;9.222;2023-12-07T08:19:41;16.97;;;11.47;;
12892;SDS011;6514;48.606;9.222;2023-12-07T08:22:08;17.13;;;11.70;;
12892;SDS011;6514;48.606;9.222;2023-12-07T08:24:35;16.13;;;10.53;;
12892;SDS011;6514;48.606;9.222;2023-12-07T08:27:03;14.07;;;10.03;;
12892;SDS011;6514;48.606;9.222;2023-12-07T08:29:31;15.03;;;9.43;;
12892;SDS011;6514;48.606;9.222;2023-12-07T08:31:58;13.20;;;9.00;;
12892;SDS011;6514;48.606;9.222;2023-12-07T08:34:25;9.87;;;8.03;;
12892;SDS011;6514;48.606;9.222;2023-12-07T08:36:51;10.00;;;8.07;;
12892;SDS011;6514;48.606;9.222;2023-12-07T08:39:18;9.07;;;7.83;;
12892;SDS011;6514;48.606;9.222;2023-12-07T08:41:45;11.03;;;7.63;;
12892;SDS011;6514;48.606;9.222;2023-12-07T08:44:12;12.37;;;7.30;;
12892;SDS011;6514;48.606;9.222;2023-12-07T08:46:40;8.33;;;7.20;;
12892;SDS011;6514;48.606;9.222;2023-12-07T08:49:10;8.63;;;6.70;;
12892;SDS011;6514;48.606;9.222;2023-12-07T08:51:36;7.00;;;6.10;;
12892;SDS011;6514;48.606;9.222;2023-12-07T08:54:03;8.03;;;6.73;;
12892;SDS011;6514;48.606;9.222;2023-12-07T08:56:31;8.87;;;7.33;;
12892;SDS011;6514;48.606;9.222;2023-12-07T08:58:58;10.27;;;6.97;;
12892;SDS011;6514;48.606;9.222;2023-12-07T09:01:25;8.27;;;6.97;;
12892;SDS011;6514;48.606;9.222;2023-12-07T09:03:53;11.63;;;6.83;;
12892;SDS011;6514;48.606;9.222;2023-12-07T09:06:20;8.03;;;6.93;;
12892;SDS011;6514;48.606;9.222;2023-12-07T09:08:47;9.37;;;7.33;;
12892;SDS011;6514;48.606;9.222;2023-12-07T09:11:13;8.47;;;7.03;;
12892;SDS011;6514;48.606;9.222;2023-12-07T09:13:40;9.13;;;7.47;;
12892;SDS011;6514;48.606;9.222;2023-12-07T09:16:07;8.20;;;6.50;;
12892;SDS011;6514;48.606;9.222;2023-12-07T09:18:34;7.87;;;5.93;;
12892;SDS011;6514;48.606;9.222;2023-12-07T09:21:02;7.00;;;5.73;;
12892;SDS011;6514;48.606;9.222;2023-12-07T09:23:30;8.57;;;6.87;;
12892;SDS011;6514;48.606;9.222;2023-12-07T09:25:57;8.90;;;6.83;;
12892;SDS011;6514;48.606;9.222;2023-12-07T09:28:24;19.00;;;9.73;;
12892;SDS011;6514;48.606;9.222;2023-12-07T09:30:51;11.93;;;8.13;;
12892;SDS011;6514;48.606;9.222;2023-12-07T09:33:18;10.43;;;7.90;;
12892;SDS011;6514;48.606;9.222;2023-12-07T09:35:45;10.27;;;7.87;;
12892;SDS011;6514;48.606;9.222;2023-12-07T09:38:13;10.47;;;7.50;;
12892;SDS011;6514;48.606;9.222;2023-12-07T09:40:40;9.97;;;7.47;;
12892;SDS011;6514;48.606;9.222;2023-12-07T09:43:07;7.47;;;6.37;;
12892;SDS011;6514;48.606;9.222;2023-12-07T09:45:34;9.57;;;7.93;;
12892;SDS011;6514;48.606;9.222;2023-12-07T09:48:01;8.20;;;6.63;;
12892;SDS011;6514;48.606;9.222;2023-12-07T09:50:29;8.93;;;7.20;;
12892;SDS011;6514;48.606;9.222;2023-12-07T09:52:57;8.87;;;6.80;;
12892;SDS011;6514;48.606;9.222;2023-12-07T09:55:25;7.67;;;6.47;;
12892;SDS011;6514;48.606;9.222;2023-12-07T09:57:52;7.17;;;5.87;;
12892;SDS011;6514;48.606;9.222;2023-12-07T10:00:22;8.00;;;6.53;;
12892;SDS011;6514;48.606;9.222;2023-12-07T10:02:49;8.00;;;6.67;;
12892;SDS011;6514;48.606;9.222;2023-12-07T10:05:16;7.77;;;5.83;;
12892;SDS011;6514;48.606;9.222;2023-12-07T10:07:43;7.30;;;5.80;;
12892;SDS011;6514;48.606;9.222;2023-12-07T10:10:12;6.83;;;5.77;;
12892;SDS011;6514;48.606;9.222;2023-12-07T10:12:45;6.30;;;5.43;;
12892;SDS011;6514;48.606;9.222;2023-12-07T10:15:13;6.67;;;5.43;;
12892;SDS011;6514;48.606;9.222;2023-12-07T10:17:45;6.23;;;5.63;;
12892;SDS011;6514;48.606;9.222;2023-12-07T10:20:14;5.43;;;4.93;;
12892;SDS011;6514;48.606;9.222;2023-12-07T10:22:41;6.47;;;4.70;;
12892;SDS011;6514;48.606;9.222;2023-12-07T10:25:09;7.20;;;4.57;;
12892;SDS011;6514;48.606;9.222;2023-12-07T10:27:37;5.33;;;4.60;;
12892;SDS011;6514;48.606;9.222;2023-12-07T10:30:07;8.20;;;6.07;;
12892;SDS011;6514;48.606;9.222;2023-12-07T10:32:36;5.10;;;4.10;;
12892;SDS011;6514;48.606;9.222;2023-12-07T10:35:05;7.40;;;6.03;;
12892;SDS011;6514;48.606;9.222;2023-12-07T10:37:34;5.73;;;4.87;;
12892;SDS011;6514;48.606;9.222;2023-12-07T10:40:01;7.80;;;5.40;;
12892;SDS011;6514;48.606;9.222;2023-12-07T10:42:31;10.50;;;5.77;;
12892;SDS011;6514;48.606;9.222;2023-12-07T10:45:02;6.70;;;4.93;;
12892;SDS011;6514;48.606;9.222;2023-12-07T10:47:32;6.07;;;5.00;;
12892;SDS011;6514;48.606;9.222;2023-12-07T10:50:02;6.00;;;4.70;;
12892;SDS011;6514;48.606;9.222;2023-12-07T10:52:36;5.73;;;4.60;;
12892;SDS011;6514;48.606;9.222;2023-12-07T10:55:06;6.20;;;4.63;;
12892;SDS011;6514;48.606;9.222;2023-12-07T10:57:37;8.73;;;5.80;;
12892;SDS011;6514;48.606;9.222;2023-12-07T11:00:05;8.07;;;5.00;;
12892;SDS011;6514;48.606;9.222;2023-12-07T11:02:35;5.97;;;4.30;;
12892;SDS011;6514;48.606;9.222;2023-12-07T11:05:04;12.70;;;7.80;;
12892;SDS011;6514;48.606;9.222;2023-12-07T11:07:36;7.13;;;5.20;;
12892;SDS011;6514;48.606;9.222;2023-12-07T11:10:14;12.63;;;8.20;;
12892;SDS011;6514;48.606;9.222;2023-12-07T11:12:46;5.37;;;4.00;;
12892;SDS011;6514;48.606;9.222;2023-12-07T11:15:16;8.20;;;5.00;;
12892;SDS011;6514;48.606;9.222;2023-12-07T11:17:50;8.23;;;5.10;;
12892;SDS011;6514;48.606;9.222;2023-12-07T11:20:19;8.27;;;4.70;;
12892;SDS011;6514;48.606;9.222;2023-12-07T11:22:47;9.17;;;6.67;;
12892;SDS011;6514;48.606;9.222;2023-12-07T11:25:15;9.27;;;5.50;;
12892;SDS011;6514;48.606;9.222;2023-12-07T11:27:43;8.67;;;6.00;;
12892;SDS011;6514;48.606;9.222;2023-12-07T11:30:13;9.90;;;6.57;;
12892;SDS011;6514;48.606;9.222;2023-12-07T11:32:41;6.47;;;4.63;;
12892;SDS011;6514;48.606;9.222;2023-12-07T11:35:12;6.17;;;3.50;;
12892;SDS011;6514;48.606;9.222;2023-12-07T11:40:31;4.70;;;3.60;;
12892;SDS011;6514;48.606;9.222;2023-12-07T11:43:00;4.33;;;3.93;;
12892;SDS011;6514;48.606;9.222;2023-12-07T11:45:39;7.50;;;4.73;;
12892;SDS011;6514;48.606;9.222;2023-12-07T11:48:07;6.20;;;4.57;;
12892;SDS011;6514;48.606;9.222;2023-12-07T11:50:36;5.73;;;4.00;;
12892;SDS011;6514;48.606;9.222;2023-12-07T11:53:21;5.17;;;3.77;;
12892;SDS011;6514;48.606;9.222;2023-12-07T11:55:49;5.60;;;4.20;;
12892;SDS011;6514;48.606;9.222;2023-12-07T11:58:16;5.50;;;4.63;;
12892;SDS011;6514;48.606;9.222;2023-12-07T12:00:43;4.83;;;3.90;;
12892;SDS011;6514;48.606;9.222;2023-12-07T12:03:11;5.53;;;3.77;;
12892;SDS011;6514;48.606;9.222;2023-12-07T12:05:40;5.63;;;4.10;;
12892;SDS011;6514;48.606;9.222;2023-12-07T12:08:08;6.37;;;3.77;;
12892;SDS011;6514;48.606;9.222;2023-12-07T12:10:35;4.40;;;4.00;;
12892;SDS011;6514;48.606;9.222;2023-12-07T12:13:02;5.27;;;4.20;;
12892;SDS011;6514;48.606;9.222;2023-12-07T12:15:29;6.53;;;4.77;;
12892;SDS011;6514;48.606;9.222;2023-12-07T12:17:56;7.80;;;4.97;;
12892;SDS011;6514;48.606;9.222;2023-12-07T12:20:24;5.60;;;4.57;;
12892;SDS011;6514;48.606;9.222;2023-12-07T12:22:52;5.03;;;4.53;;
12892;SDS011;6514;48.606;9.222;2023-12-07T12:25:20;6.10;;;4.37;;
12892;SDS011;6514;48.606;9.222;2023-12-07T12:27:47;6.33;;;4.37;;
12892;SDS011;6514;48.606;9.222;2023-12-07T12:30:15;4.73;;;4.30;;
12892;SDS011;6514;48.606;9.222;2023-12-07T12:32:44;4.20;;;3.73;;
12892;SDS011;6514;48.606;9.222;2023-12-07T12:35:11;5.37;;;4.10;;
12892;SDS011;6514;48.606;9.222;2023-12-07T12:37:39;5.37;;;3.63;;
12892;SDS011;6514;48.606;9.222;2023-12-07T12:40:09;6.40;;;3.97;;
12892;SDS011;6514;48.606;9.222;2023-12-07T12:42:37;7.13;;;4.30;;
12892;SDS011;6514;48.606;9.222;2023-12-07T12:45:04;5.70;;;4.47;;
12892;SDS011;6514;48.606;9.222;2023-12-07T12:47:33;6.27;;;3.60;;
12892;SDS011;6514;48.606;9.222;2023-12-07T12:50:00;3.67;;;2.90;;
12892;SDS011;6514;48.606;9.222;2023-12-07T12:52:29;3.50;;;2.63;;
12892;SDS011;6514;48.606;9.222;2023-12-07T12:54:56;3.97;;;3.13;;
12892;SDS011;6514;48.606;9.222;2023-12-07T12:57:25;6.93;;;3.90;;
12892;SDS011;6514;48.606;9.222;2023-12-07T12:59:53;4.07;;;3.00;;
12892;SDS011;6514;48.606;9.222;2023-12-07T13:02:20;4.60;;;3.07;;
12892;SDS011;6514;48.606;9.222;2023-12-07T13:04:47;3.00;;;2.70;;
12892;SDS011;6514;48.606;9.222;2023-12-07T13:07:13;4.07;;;2.97;;
12892;SDS011;6514;48.606;9.222;2023-12-07T13:09:40;4.17;;;2.73;;
12892;SDS011;6514;48.606;9.222;2023-12-07T13:12:08;2.20;;;1.70;;
12892;SDS011;6514;48.606;9.222;2023-12-07T13:14:37;1.97;;;1.70;;
12892;SDS011;6514;48.606;9.222;2023-12-07T13:17:05;1.93;;;1.73;;
12892;SDS011;6514;48.606;9.222;2023-12-07T13:19:33;2.50;;;1.90;;
12892;SDS011;6514;48.606;9.222;2023-12-07T13:22:00;1.50;;;1.20;;
12892;SDS011;6514;48.606;9.222;2023-12-07T13:24:28;2.47;;;1.60;;
12892;SDS011;6514;48.606;9.222;2023-12-07T13:26:55;1.37;;;1.27;;
12892;SDS011;6514;48.606;9.222;2023-12-07T13:29:25;1.60;;;1.50;;
12892;SDS011;6514;48.606;9.222;2023-12-07T13:31:53;2.83;;;1.60;;
12892;SDS011;6514;48.606;9.222;2023-12-07T13:34:20;1.20;;;1.10;;
12892;SDS011;6514;48.606;9.222;2023-12-07T13:36:47;2.53;;;1.53;;
12892;SDS011;6514;48.606;9.222;2023-12-07T13:39:14;2.23;;;1.73;;
12892;SDS011;6514;48.606;9.222;2023-12-07T13:41:41;2.50;;;1.80;;
12892;SDS011;6514;48.606;9.222;2023-12-07T13:44:08;3.27;;;1.80;;
12892;SDS011;6514;48.606;9.222;2023-12-07T13:46:35;2.67;;;1.60;;
12892;SDS011;6514;48.606;9.222;2023-12-07T13:49:04;2.60;;;1.80;;
12892;SDS011;6514;48.606;9.222;2023-12-07T13:51:30;2.37;;;1.53;;
12892;SDS011;6514;48.606;9.222;2023-12-07T13:53:59;2.63;;;1.70;;
12892;SDS011;6514;48.606;9.222;2023-12-07T13:56:25;3.00;;;1.87;;
12892;SDS011;6514;48.606;9.222;2023-12-07T13:58:52;2.90;;;1.80;;
12892;SDS011;6514;48.606;9.222;2023-12-07T14:01:19;1.90;;;1.57;;
12892;SDS011;6514;48.606;9.222;2023-12-07T14:03:46;3.13;;;1.80;;
12892;SDS011;6514;48.606;9.222;2023-12-07T14:06:22;3.53;;;1.70;;
12892;SDS011;6514;48.606;9.222;2023-12-07T14:08:49;4.70;;;1.70;;
12892;SDS011;6514;48.606;9.222;2023-12-07T14:11:16;2.10;;;1.27;;
12892;SDS011;6514;48.606;9.222;2023-12-07T14:13:43;1.90;;;1.80;;
12892;SDS011;6514;48.606;9.222;2023-12-07T14:16:11;2.47;;;2.00;;
12892;SDS011;6514;48.606;9.222;2023-12-07T14:18:38;1.87;;;1.60;;
12892;SDS011;6514;48.606;9.222;2023-12-07T14:21:05;1.77;;;1.33;;
12892;SDS011;6514;48.606;9.222;2023-12-07T14:23:33;2.67;;;2.40;;
12892;SDS011;6514;48.606;9.222;2023-12-07T14:26:00;4.03;;;3.63;;
12892;SDS011;6514;48.606;9.222;2023-12-07T14:28:27;4.77;;;3.63;;
12892;SDS011;6514;48.606;9.222;2023-12-07T14:30:55;2.70;;;2.10;;
12892;SDS011;6514;48.606;9.222;2023-12-07T14:33:22;2.67;;;1.70;;
12892;SDS011;6514;48.606;9.222;2023-12-07T14:35:49;4.80;;;2.23;;
12892;SDS011;6514;48.606;9.222;2023-12-07T14:38:16;4.43;;;2.43;;
12892;SDS011;6514;48.606;9.222;2023-12-07T14:40:44;6.30;;;3.13;;
12892;SDS011;6514;48.606;9.222;2023-12-07T14:43:11;4.77;;;3.53;;
12892;SDS011;6514;48.606;9.222;2023-12-07T14:45:37;7.00;;;4.00;;
12892;SDS011;6514;48.606;9.222;2023-12-07T14:48:04;4.07;;;2.57;;
12892;SDS011;6514;48.606;9.222;2023-12-07T14:50:31;3.03;;;2.20;;
12892;SDS011;6514;48.606;9.222;2023-12-07T14:52:58;2.57;;;2.00;;
12892;SDS011;6514;48.606;9.222;2023-12-07T14:55:25;4.90;;;2.20;;